createdAt,value
2019-06-26T00:00:32.046Z,18.97
2019-06-26T00:03:00.595Z,18.94
2019-06-26T00:05:29.024Z,18.97
2019-06-26T00:07:57.237Z,18.94
2019-06-26T00:10:25.834Z,18.91
2019-06-26T00:12:54.411Z,18.89
2019-06-26T00:15:22.592Z,18.86
2019-06-26T00:17:51.105Z,18.81
2019-06-26T00:20:19.408Z,18.77
2019-06-26T00:22:47.945Z,18.73
2019-06-26T00:25:16.280Z,18.70
2019-06-26T00:27:44.534Z,18.69
2019-06-26T00:30:12.319Z,18.69
2019-06-26T00:32:40.793Z,18.72
2019-06-26T00:35:09.039Z,18.65
2019-06-26T00:37:37.345Z,18.59
2019-06-26T00:40:06.935Z,18.56
2019-06-26T00:42:34.422Z,18.55
2019-06-26T00:45:02.797Z,18.56
2019-06-26T00:47:30.718Z,18.60
2019-06-26T00:49:58.947Z,18.61
2019-06-26T00:52:27.137Z,18.59
2019-06-26T00:54:55.676Z,18.62
2019-06-26T00:57:24.727Z,18.76
2019-06-26T00:59:53.011Z,18.76
2019-06-26T01:02:21.175Z,18.86
2019-06-26T01:04:50.959Z,18.73
2019-06-26T01:07:19.528Z,18.78
2019-06-26T01:09:48.269Z,18.81
2019-06-26T01:12:16.242Z,18.71
2019-06-26T01:14:44.850Z,18.79
2019-06-26T01:17:13.451Z,18.79
2019-06-26T01:19:41.639Z,18.68
2019-06-26T01:22:09.906Z,18.68
2019-06-26T01:24:38.176Z,18.56
2019-06-26T01:27:06.455Z,18.56
2019-06-26T01:29:34.844Z,18.40
2019-06-26T01:32:03.450Z,18.40
2019-06-26T01:34:31.757Z,18.29
2019-06-26T01:37:00.220Z,18.20
2019-06-26T01:39:28.485Z,18.14
2019-06-26T01:41:56.768Z,18.12
2019-06-26T01:44:25.483Z,18.09
2019-06-26T01:46:53.740Z,18.03
2019-06-26T01:49:22.201Z,17.89
2019-06-26T01:51:50.804Z,17.82
2019-06-26T01:54:18.998Z,17.79
2019-06-26T01:56:46.863Z,17.73
2019-06-26T01:59:15.165Z,17.68
2019-06-26T02:01:43.403Z,17.63
2019-06-26T02:04:11.219Z,17.59
2019-06-26T02:06:39.385Z,17.54
2019-06-26T02:09:07.671Z,17.54
2019-06-26T02:11:35.913Z,17.52
2019-06-26T02:14:03.419Z,17.50
2019-06-26T02:16:31.284Z,17.47
2019-06-26T02:19:01.532Z,17.44
2019-06-26T02:21:29.663Z,17.43
2019-06-26T02:23:57.707Z,17.40
2019-06-26T02:26:26.056Z,17.38
2019-06-26T02:28:54.646Z,17.35
2019-06-26T02:31:23.229Z,17.36
2019-06-26T02:33:51.758Z,17.36
2019-06-26T02:36:20.400Z,17.40
2019-06-26T02:38:48.997Z,17.43
2019-06-26T02:41:17.486Z,17.43
2019-06-26T02:43:46.030Z,17.45
2019-06-26T02:46:14.046Z,17.46
2019-06-26T02:48:42.646Z,17.45
2019-06-26T02:51:11.161Z,17.45
2019-06-26T02:53:39.295Z,17.45
2019-06-26T02:56:06.810Z,17.68
2019-06-26T02:58:35.458Z,17.67
2019-06-26T03:01:03.959Z,17.67
2019-06-26T03:03:32.473Z,17.57
2019-06-26T03:06:01.043Z,17.57
2019-06-26T03:08:29.403Z,17.74
2019-06-26T03:10:57.594Z,17.84
2019-06-26T03:13:25.868Z,17.80
2019-06-26T03:15:54.145Z,17.72
2019-06-26T03:18:22.645Z,17.70
2019-06-26T03:20:53.699Z,17.69
2019-06-26T03:23:21.956Z,17.60
2019-06-26T03:25:50.140Z,17.58
2019-06-26T03:28:18.719Z,17.60
2019-06-26T03:30:46.719Z,17.68
2019-06-26T03:33:14.513Z,17.74
2019-06-26T03:35:43.160Z,17.69
2019-06-26T03:38:11.041Z,17.50
2019-06-26T03:40:38.911Z,17.50
2019-06-26T03:43:07.496Z,17.48
2019-06-26T03:45:36.055Z,17.44
2019-06-26T03:48:04.590Z,17.39
2019-06-26T03:50:32.886Z,17.48
2019-06-26T03:53:01.447Z,17.52
2019-06-26T03:55:29.634Z,17.53
2019-06-26T03:57:57.909Z,17.47
2019-06-26T04:00:39.815Z,17.44
2019-06-26T04:03:08.495Z,17.40
2019-06-26T04:05:36.378Z,17.37
2019-06-26T04:08:04.958Z,17.35
2019-06-26T04:10:33.271Z,17.33
2019-06-26T04:13:01.467Z,17.33
2019-06-26T04:15:41.358Z,17.33
2019-06-26T04:17:59.644Z,17.35
2019-06-26T04:20:27.888Z,17.38
2019-06-26T04:22:56.115Z,17.47
2019-06-26T04:25:24.779Z,17.60
2019-06-26T04:27:53.313Z,17.70
2019-06-26T04:30:22.312Z,17.81
2019-06-26T04:32:50.624Z,17.83
2019-06-26T04:35:18.702Z,17.90
2019-06-26T04:37:46.613Z,17.96
2019-06-26T04:40:15.080Z,17.96
2019-06-26T04:42:43.615Z,17.94
2019-06-26T04:45:12.381Z,17.91
2019-06-26T04:47:40.652Z,17.88
2019-06-26T04:50:09.257Z,17.96
2019-06-26T04:52:37.502Z,17.98
2019-06-26T04:55:06.151Z,17.99
2019-06-26T04:57:34.794Z,18.04
2019-06-26T05:00:03.732Z,18.04
2019-06-26T05:02:32.230Z,18.08
2019-06-26T05:05:00.456Z,18.16
2019-06-26T05:07:28.715Z,18.29
2019-06-26T05:09:56.921Z,18.52
2019-06-26T05:12:25.265Z,18.54
2019-06-26T05:14:53.508Z,18.52
2019-06-26T05:17:21.444Z,18.63
2019-06-26T05:19:49.596Z,18.77
2019-06-26T05:22:17.827Z,18.85
2019-06-26T05:24:46.591Z,18.85
2019-06-26T05:27:14.274Z,19.03
2019-06-26T05:29:42.990Z,19.20
2019-06-26T05:32:10.893Z,19.23
2019-06-26T05:34:39.491Z,19.37
2019-06-26T05:37:07.821Z,19.48
2019-06-26T05:39:36.002Z,19.54
2019-06-26T05:42:06.646Z,19.58
2019-06-26T05:44:34.778Z,19.61
2019-06-26T05:47:03.005Z,19.71
2019-06-26T05:49:31.329Z,19.76
2019-06-26T05:52:02.106Z,19.84
2019-06-26T05:54:29.444Z,19.93
2019-06-26T05:56:57.342Z,20.05
2019-06-26T05:59:25.614Z,20.17
2019-06-26T06:01:53.809Z,20.35
2019-06-26T06:04:22.118Z,20.53
2019-06-26T06:06:50.494Z,20.73
2019-06-26T06:09:19.070Z,21.04
2019-06-26T06:11:46.875Z,21.22
2019-06-26T06:14:15.426Z,21.49
2019-06-26T06:16:47.776Z,21.56
2019-06-26T06:19:14.140Z,21.73
2019-06-26T06:21:42.320Z,21.85
2019-06-26T06:24:10.553Z,21.86
2019-06-26T06:26:38.687Z,21.96
2019-06-26T06:29:06.553Z,22.22
2019-06-26T06:31:35.141Z,22.23
2019-06-26T06:34:03.522Z,22.27
2019-06-26T06:36:32.026Z,22.34
2019-06-26T06:39:00.550Z,22.47
2019-06-26T06:41:29.190Z,22.58
2019-06-26T06:43:57.379Z,22.68
2019-06-26T06:46:25.720Z,22.78
2019-06-26T06:48:54.360Z,22.92
2019-06-26T06:51:22.974Z,23.08
2019-06-26T06:53:51.229Z,23.20
2019-06-26T06:56:19.391Z,23.33
2019-06-26T06:58:47.978Z,23.47
2019-06-26T07:01:16.155Z,23.64
2019-06-26T07:03:44.344Z,23.88
2019-06-26T07:06:12.535Z,24.10
2019-06-26T07:08:40.736Z,24.33
2019-06-26T07:11:08.995Z,24.40
2019-06-26T07:13:36.902Z,24.54
2019-06-26T07:16:04.731Z,24.64
2019-06-26T07:18:33.355Z,24.69
2019-06-26T07:21:01.743Z,24.72
2019-06-26T07:23:30.032Z,24.79
2019-06-26T07:25:58.500Z,24.80
2019-06-26T07:28:27.058Z,24.87
2019-06-26T07:30:54.955Z,24.97
2019-06-26T07:33:22.816Z,25.06
2019-06-26T07:35:50.676Z,25.11
2019-06-26T07:38:18.870Z,25.17
2019-06-26T07:40:47.141Z,25.34
2019-06-26T07:43:16.512Z,25.42
2019-06-26T07:45:45.136Z,25.49
2019-06-26T07:48:13.015Z,25.53
2019-06-26T07:50:41.485Z,25.56
2019-06-26T07:53:09.277Z,25.61
2019-06-26T07:55:40.453Z,25.70
2019-06-26T07:58:07.679Z,25.78
2019-06-26T08:00:35.964Z,25.86
2019-06-26T08:03:04.650Z,26.00
2019-06-26T08:05:34.194Z,26.03
2019-06-26T08:08:02.755Z,26.05
2019-06-26T08:10:32.375Z,26.09
2019-06-26T08:13:00.308Z,26.18
2019-06-26T08:15:29.233Z,26.15
2019-06-26T08:18:00.933Z,26.20
2019-06-26T08:20:27.636Z,26.23
2019-06-26T08:22:55.927Z,26.28
2019-06-26T08:25:24.614Z,26.25
2019-06-26T08:27:53.245Z,26.31
2019-06-26T08:30:21.815Z,26.42
2019-06-26T08:32:49.467Z,26.53
2019-06-26T08:35:18.060Z,26.64
2019-06-26T08:37:47.732Z,26.76
2019-06-26T08:40:17.490Z,26.79
2019-06-26T08:42:45.659Z,26.89
2019-06-26T08:45:14.256Z,26.97
2019-06-26T08:47:42.638Z,27.06
2019-06-26T08:50:10.810Z,27.09
2019-06-26T08:52:38.340Z,27.11
2019-06-26T08:55:06.553Z,27.07
2019-06-26T08:57:35.197Z,27.07
2019-06-26T09:00:04.062Z,27.09
2019-06-26T09:02:31.913Z,27.15
2019-06-26T09:05:00.553Z,27.19
2019-06-26T09:07:28.685Z,27.28
2019-06-26T09:09:56.865Z,27.35
2019-06-26T09:12:25.452Z,27.44
2019-06-26T09:14:53.722Z,27.47
2019-06-26T09:17:21.920Z,27.56
2019-06-26T09:19:50.459Z,27.61
2019-06-26T09:22:18.798Z,27.66
2019-06-26T09:24:47.313Z,27.70
2019-06-26T09:27:15.334Z,27.78
2019-06-26T09:29:42.995Z,27.99
2019-06-26T09:32:11.337Z,27.97
2019-06-26T09:34:39.296Z,27.98
2019-06-26T09:37:07.445Z,27.99
2019-06-26T09:39:35.331Z,28.05
2019-06-26T09:42:03.509Z,28.20
2019-06-26T09:44:31.383Z,28.26
2019-06-26T09:46:59.291Z,28.28
2019-06-26T09:49:27.473Z,28.31
2019-06-26T09:51:55.368Z,28.34
2019-06-26T09:54:23.657Z,28.38
2019-06-26T09:56:52.284Z,28.50
2019-06-26T09:59:20.910Z,28.48
2019-06-26T10:01:58.759Z,28.70
2019-06-26T10:04:26.898Z,28.70
2019-06-26T10:06:54.897Z,28.72
2019-06-26T10:09:22.797Z,28.71
2019-06-26T10:11:50.338Z,28.78
2019-06-26T10:14:18.596Z,28.79
2019-06-26T10:16:46.530Z,28.84
2019-06-26T10:19:15.226Z,28.91
2019-06-26T10:21:43.073Z,29.07
2019-06-26T10:24:10.634Z,29.11
2019-06-26T10:26:38.824Z,29.19
2019-06-26T10:29:06.696Z,29.34
2019-06-26T10:31:34.886Z,29.40
2019-06-26T10:34:03.071Z,29.49
2019-06-26T10:36:30.616Z,29.57
2019-06-26T10:38:58.832Z,29.68
2019-06-26T10:41:27.494Z,29.79
2019-06-26T10:43:55.794Z,29.97
2019-06-26T10:46:23.643Z,29.97
2019-06-26T10:48:51.532Z,29.99
2019-06-26T10:51:20.472Z,30.31
2019-06-26T10:53:48.411Z,30.53
2019-06-26T10:56:16.676Z,30.62
2019-06-26T10:58:44.862Z,30.59
2019-06-26T11:01:13.032Z,30.59
2019-06-26T11:03:40.910Z,30.58
2019-06-26T11:06:09.508Z,30.80
2019-06-26T11:08:37.776Z,30.90
2019-06-26T11:11:05.240Z,30.98
2019-06-26T11:13:33.226Z,31.05
2019-06-26T11:16:01.411Z,30.99
2019-06-26T11:18:29.691Z,31.00
2019-06-26T11:20:57.957Z,31.00
2019-06-26T11:23:26.551Z,30.83
2019-06-26T11:25:55.145Z,31.27
2019-06-26T11:28:23.531Z,31.58
2019-06-26T11:30:51.589Z,32.03
2019-06-26T11:33:20.200Z,32.22
2019-06-26T11:35:48.413Z,32.15
2019-06-26T11:38:16.662Z,32.15
2019-06-26T11:40:44.849Z,32.08
2019-06-26T11:43:13.129Z,32.16
2019-06-26T11:45:41.093Z,32.42
2019-06-26T11:48:09.648Z,32.68
2019-06-26T11:50:37.542Z,32.76
2019-06-26T11:53:05.738Z,32.61
2019-06-26T11:55:34.231Z,32.49
2019-06-26T11:58:02.850Z,32.29
2019-06-26T12:00:30.935Z,32.17
2019-06-26T12:02:59.642Z,32.30
2019-06-26T12:05:28.283Z,32.75
2019-06-26T12:07:56.582Z,32.73
2019-06-26T12:10:24.594Z,32.59
2019-06-26T12:12:52.130Z,33.00
2019-06-26T12:15:20.992Z,33.13
2019-06-26T12:17:49.587Z,33.40
2019-06-26T12:20:19.602Z,33.04
2019-06-26T12:22:47.581Z,32.85
2019-06-26T12:25:15.823Z,32.89
2019-06-26T12:27:43.686Z,33.02
2019-06-26T12:30:12.063Z,32.79
2019-06-26T12:32:42.733Z,32.78
2019-06-26T12:35:10.969Z,32.57
2019-06-26T12:37:38.815Z,32.55
2019-06-26T12:40:07.697Z,32.81
2019-06-26T12:42:35.969Z,33.44
2019-06-26T12:45:04.775Z,34.06
2019-06-26T12:47:32.950Z,34.23
2019-06-26T12:50:01.143Z,34.01
2019-06-26T12:52:29.325Z,33.88
2019-06-26T12:54:57.928Z,33.90
2019-06-26T12:57:26.187Z,34.68
2019-06-26T12:59:57.821Z,34.31
2019-06-26T13:02:23.851Z,33.91
2019-06-26T13:04:52.172Z,33.95
2019-06-26T13:07:20.752Z,34.23
2019-06-26T13:09:49.455Z,33.92
2019-06-26T13:12:16.650Z,33.69
2019-06-26T13:14:44.979Z,33.77
2019-06-26T13:17:13.511Z,33.96
2019-06-26T13:19:41.663Z,34.49
2019-06-26T13:22:10.340Z,35.16
2019-06-26T13:24:38.929Z,35.13
2019-06-26T13:27:06.818Z,35.34
2019-06-26T13:29:35.080Z,35.38
2019-06-26T13:32:09.406Z,36.61
2019-06-26T13:34:37.986Z,37.49
2019-06-26T13:37:07.505Z,38.48
2019-06-26T13:39:35.558Z,38.81
2019-06-26T13:42:04.156Z,38.68
2019-06-26T13:44:32.060Z,38.00
2019-06-26T13:47:00.375Z,38.14
2019-06-26T13:49:28.766Z,38.88
2019-06-26T13:51:57.088Z,39.52
2019-06-26T13:54:25.611Z,40.16
2019-06-26T13:56:53.875Z,40.23
2019-06-26T13:59:22.228Z,40.84
2019-06-26T14:01:50.830Z,41.17
2019-06-26T14:04:18.698Z,41.37
2019-06-26T14:06:47.006Z,42.56
2019-06-26T14:09:15.493Z,42.02
2019-06-26T14:11:43.364Z,41.45
2019-06-26T14:14:11.944Z,41.55
2019-06-26T14:16:40.559Z,41.81
2019-06-26T14:19:09.067Z,42.00
2019-06-26T14:21:37.180Z,41.73
2019-06-26T14:24:05.481Z,41.64
2019-06-26T14:26:33.842Z,41.95
2019-06-26T14:29:01.465Z,41.76
2019-06-26T14:31:29.818Z,41.43
2019-06-26T14:33:57.376Z,41.78
2019-06-26T14:36:25.553Z,42.13
2019-06-26T14:38:53.137Z,42.25
2019-06-26T14:41:21.401Z,42.37
2019-06-26T14:43:49.935Z,42.44
2019-06-26T14:46:18.181Z,42.28
2019-06-26T14:48:46.465Z,42.12
2019-06-26T14:51:14.647Z,41.92
2019-06-26T14:53:42.606Z,41.90
2019-06-26T14:56:11.299Z,41.82
2019-06-26T14:58:39.747Z,41.84
2019-06-26T15:01:08.299Z,41.83
2019-06-26T15:03:36.935Z,41.62
2019-06-26T15:06:15.803Z,41.73
2019-06-26T15:08:34.915Z,41.77
2019-06-26T15:11:03.692Z,41.31
2019-06-26T15:13:32.190Z,41.25
2019-06-26T15:15:59.761Z,41.11
2019-06-26T15:18:27.615Z,40.86
2019-06-26T15:20:56.162Z,40.85
2019-06-26T15:23:24.423Z,40.37
2019-06-26T15:25:52.631Z,40.04
2019-06-26T15:28:21.316Z,39.75
2019-06-26T15:30:49.916Z,39.37
2019-06-26T15:33:17.812Z,39.08
2019-06-26T15:35:46.413Z,38.65
2019-06-26T15:38:14.553Z,38.25
2019-06-26T15:40:42.827Z,37.75
2019-06-26T15:43:10.800Z,37.30
2019-06-26T15:45:38.379Z,36.85
2019-06-26T15:48:06.751Z,36.48
2019-06-26T15:50:35.407Z,36.28
2019-06-26T15:53:04.036Z,35.68
2019-06-26T15:55:31.986Z,35.47
2019-06-26T15:58:00.537Z,35.01
2019-06-26T16:00:29.092Z,34.94
2019-06-26T16:02:57.320Z,34.81
2019-06-26T16:05:25.632Z,34.47
2019-06-26T16:07:53.866Z,34.32
2019-06-26T16:10:22.937Z,34.24
2019-06-26T16:12:51.530Z,34.18
2019-06-26T16:15:20.056Z,34.12
2019-06-26T16:17:53.951Z,34.00
2019-06-26T16:20:22.206Z,33.94
2019-06-26T16:22:50.200Z,33.90
2019-06-26T16:25:18.851Z,33.86
2019-06-26T16:27:46.787Z,33.81
2019-06-26T16:30:15.229Z,33.74
2019-06-26T16:32:43.400Z,33.69
2019-06-26T16:35:12.493Z,33.48
2019-06-26T16:37:40.804Z,33.34
2019-06-26T16:40:09.380Z,33.17
2019-06-26T16:42:37.281Z,33.14
2019-06-26T16:45:05.386Z,33.16
2019-06-26T16:47:32.874Z,33.08
2019-06-26T16:50:01.171Z,32.87
2019-06-26T16:52:29.803Z,32.80
2019-06-26T16:54:58.377Z,32.76
2019-06-26T16:57:26.967Z,32.72
2019-06-26T17:00:09.030Z,32.68
2019-06-26T17:02:26.049Z,32.58
2019-06-26T17:04:54.297Z,32.51
2019-06-26T17:07:23.010Z,32.44
2019-06-26T17:09:51.753Z,32.32
2019-06-26T17:12:20.114Z,32.24
2019-06-26T17:14:48.318Z,32.06
2019-06-26T17:17:16.892Z,31.87
2019-06-26T17:19:45.377Z,31.74
2019-06-26T17:22:13.660Z,31.75
2019-06-26T17:24:41.534Z,31.71
2019-06-26T17:27:09.901Z,31.51
2019-06-26T17:29:38.122Z,31.42
2019-06-26T17:32:06.201Z,31.28
2019-06-26T17:34:34.347Z,31.14
2019-06-26T17:37:02.623Z,31.15
2019-06-26T17:39:30.524Z,31.05
2019-06-26T17:41:58.385Z,30.94
2019-06-26T17:44:26.967Z,30.79
2019-06-26T17:46:55.162Z,30.61
2019-06-26T17:49:23.008Z,30.48
2019-06-26T17:51:51.674Z,30.22
2019-06-26T17:54:20.280Z,29.91
2019-06-26T17:56:48.815Z,29.73
2019-06-26T17:59:17.076Z,29.55
2019-06-26T18:01:45.537Z,29.46
2019-06-26T18:04:13.751Z,29.43
2019-06-26T18:06:41.966Z,29.32
2019-06-26T18:09:12.315Z,29.18
2019-06-26T18:11:40.036Z,29.05
2019-06-26T18:14:07.998Z,28.89
2019-06-26T18:16:36.496Z,28.75
2019-06-26T18:19:04.852Z,28.64
2019-06-26T18:21:33.203Z,28.49
2019-06-26T18:24:01.128Z,28.35
2019-06-26T18:26:29.662Z,28.25
2019-06-26T18:28:57.982Z,28.14
2019-06-26T18:31:26.518Z,28.05
2019-06-26T18:33:54.431Z,27.96
2019-06-26T18:38:52.117Z,27.68
2019-06-26T18:41:20.730Z,27.48
2019-06-26T18:43:49.049Z,27.39
2019-06-26T18:46:16.835Z,27.29
2019-06-26T18:48:45.042Z,27.14
2019-06-26T18:51:13.021Z,27.06
2019-06-26T18:53:53.079Z,26.93
2019-06-26T18:56:10.695Z,26.80
2019-06-26T18:58:39.398Z,26.69
2019-06-26T19:01:07.319Z,26.60
2019-06-26T19:03:35.576Z,26.61
2019-06-26T19:06:03.494Z,26.63
2019-06-26T19:08:32.111Z,26.64
2019-06-26T19:11:04.488Z,26.62
2019-06-26T19:13:32.562Z,26.52
2019-06-26T19:16:04.223Z,26.44
2019-06-26T19:18:30.903Z,26.38
2019-06-26T19:20:58.378Z,26.34
2019-06-26T19:23:38.047Z,26.28
2019-06-26T19:26:07.131Z,26.18
2019-06-26T19:28:35.692Z,26.06
2019-06-26T19:31:03.919Z,25.91
2019-06-26T19:33:31.823Z,25.67
2019-06-26T19:36:00.401Z,25.46
2019-06-26T19:38:28.611Z,25.27
2019-06-26T19:40:57.175Z,25.11
2019-06-26T19:43:25.513Z,25.06
2019-06-26T19:45:54.352Z,25.09
2019-06-26T19:48:22.306Z,25.17
2019-06-26T19:50:50.947Z,25.23
2019-06-26T19:53:19.663Z,25.14
2019-06-26T19:55:48.334Z,25.10
2019-06-26T19:58:16.587Z,25.04
2019-06-26T20:00:44.561Z,24.92
2019-06-26T20:03:13.076Z,24.81
2019-06-26T20:05:41.781Z,24.76
2019-06-26T20:08:09.727Z,24.79
2019-06-26T20:10:37.592Z,24.77
2019-06-26T20:13:06.177Z,24.64
2019-06-26T20:15:34.322Z,24.59
2019-06-26T20:18:04.414Z,24.53
2019-06-26T20:20:33.053Z,24.42
2019-06-26T20:23:01.685Z,24.35
2019-06-26T20:25:30.067Z,24.26
2019-06-26T20:27:58.146Z,24.19
2019-06-26T20:30:30.568Z,24.16
2019-06-26T20:32:58.705Z,24.14
2019-06-26T20:35:27.234Z,24.11
2019-06-26T20:37:55.572Z,23.99
2019-06-26T20:40:23.771Z,23.89
2019-06-26T20:42:51.670Z,23.84
2019-06-26T20:45:20.420Z,23.76
2019-06-26T20:47:48.749Z,23.80
2019-06-26T20:50:17.409Z,23.78
2019-06-26T20:52:45.582Z,23.72
2019-06-26T20:55:13.748Z,23.71
2019-06-26T20:57:42.045Z,23.65
2019-06-26T21:00:10.824Z,23.53
2019-06-26T21:02:38.779Z,23.44
2019-06-26T21:05:07.702Z,23.36
2019-06-26T21:07:36.198Z,23.32
2019-06-26T21:10:04.829Z,23.25
2019-06-26T21:12:34.452Z,23.15
2019-06-26T21:15:05.285Z,23.10
2019-06-26T21:17:34.423Z,23.07
2019-06-26T21:20:03.877Z,23.06
2019-06-26T21:22:32.454Z,23.00
2019-06-26T21:25:16.962Z,22.95
2019-06-26T21:27:32.310Z,22.89
2019-06-26T21:30:02.066Z,22.82
2019-06-26T21:32:30.381Z,22.73
2019-06-26T21:34:58.238Z,22.69
2019-06-26T21:37:26.623Z,22.63
2019-06-26T21:39:54.140Z,22.62
2019-06-26T21:42:21.845Z,22.60
2019-06-26T21:44:50.547Z,22.52
2019-06-26T21:47:18.897Z,22.51
2019-06-26T21:49:47.340Z,22.54
2019-06-26T21:52:15.908Z,22.54
2019-06-26T21:54:43.697Z,22.57
2019-06-26T21:57:12.287Z,22.55
2019-06-26T21:59:40.502Z,22.52
2019-06-26T22:02:09.237Z,22.40
2019-06-26T22:04:37.426Z,22.31
2019-06-26T22:07:05.744Z,22.22
2019-06-26T22:09:34.095Z,22.11
2019-06-26T22:12:02.723Z,22.03
2019-06-26T22:14:31.384Z,21.94
2019-06-26T22:16:59.904Z,21.85
2019-06-26T22:19:37.242Z,21.77
2019-06-26T22:22:05.743Z,21.72
2019-06-26T22:24:34.018Z,21.68
2019-06-26T22:27:02.216Z,21.63
2019-06-26T22:29:30.881Z,21.57
2019-06-26T22:31:59.463Z,21.55
2019-06-26T22:34:27.723Z,21.56
2019-06-26T22:36:56.370Z,21.58
2019-06-26T22:39:24.524Z,21.58
2019-06-26T22:41:52.384Z,21.76
2019-06-26T22:44:20.643Z,21.70
2019-06-26T22:46:48.872Z,21.66
2019-06-26T22:49:17.436Z,21.59
2019-06-26T22:51:45.938Z,21.52
2019-06-26T22:54:14.262Z,21.45
2019-06-26T22:56:42.946Z,21.34
2019-06-26T22:59:11.096Z,21.32
2019-06-26T23:01:38.953Z,21.34
2019-06-26T23:04:06.908Z,21.37
2019-06-26T23:06:37.431Z,21.30
2019-06-26T23:09:05.858Z,21.23
2019-06-26T23:11:34.023Z,21.19
2019-06-26T23:14:02.269Z,21.15
2019-06-26T23:16:30.815Z,21.16
2019-06-26T23:18:59.072Z,21.14
2019-06-26T23:21:26.886Z,21.13
2019-06-26T23:23:55.217Z,21.08
2019-06-26T23:26:24.706Z,21.01
2019-06-26T23:28:53.236Z,21.05
2019-06-26T23:31:21.819Z,21.21
2019-06-26T23:33:50.016Z,21.28
2019-06-26T23:36:18.281Z,21.18
2019-06-26T23:38:46.506Z,21.21
2019-06-26T23:41:17.863Z,21.06
2019-06-26T23:43:44.488Z,20.98
2019-06-26T23:46:13.161Z,20.94
2019-06-26T23:48:45.556Z,20.89
2019-06-26T23:51:11.558Z,20.92
2019-06-26T23:53:39.846Z,20.86
2019-06-26T23:56:08.442Z,20.85
2019-06-26T23:58:36.617Z,20.81
